createdAt,value
2019-04-03T00:03:28.719Z,20.03
2019-04-03T00:08:43.522Z,20.07
2019-04-03T00:14:00.886Z,19.03
2019-04-03T00:19:07.731Z,17.45
2019-04-03T00:24:22.670Z,14.65
2019-04-03T00:29:41.032Z,13.40
2019-04-03T00:35:23.606Z,8.23
2019-04-03T00:40:38.537Z,9.00
2019-04-03T00:45:54.018Z,7.73
2019-04-03T00:51:09.387Z,6.67
2019-04-03T00:56:24.796Z,6.20
2019-04-03T01:01:39.549Z,6.23
2019-04-03T01:06:58.626Z,6.10
2019-04-03T01:12:14.268Z,6.37
2019-04-03T01:17:44.008Z,6.63
2019-04-03T01:22:56.768Z,5.93
2019-04-03T01:28:11.297Z,6.57
2019-04-03T01:33:25.471Z,6.47
2019-04-03T01:38:36.955Z,6.67
2019-04-03T01:43:48.499Z,6.60
2019-04-03T01:49:05.786Z,7.20
2019-04-03T01:54:19.463Z,7.30
2019-04-03T01:59:32.945Z,8.03
2019-04-03T02:04:44.724Z,8.83
2019-04-03T02:09:54.943Z,7.87
2019-04-03T02:15:08.575Z,8.97
2019-04-03T02:20:19.809Z,8.03
2019-04-03T02:25:32.263Z,8.87
2019-04-03T02:30:46.898Z,9.07
2019-04-03T02:36:00.356Z,8.57
2019-04-03T02:41:09.010Z,9.00
2019-04-03T02:46:19.604Z,8.50
2019-04-03T02:51:32.040Z,8.80
2019-04-03T02:56:44.554Z,8.53
2019-04-03T03:01:57.305Z,9.30
2019-04-03T03:07:35.850Z,8.67
2019-04-03T03:12:53.243Z,9.13
2019-04-03T03:18:09.877Z,8.20
2019-04-03T03:23:23.111Z,8.35
2019-04-03T03:28:34.972Z,8.33
2019-04-03T03:33:51.924Z,8.33
2019-04-03T03:39:10.707Z,8.37
2019-04-03T03:44:21.576Z,8.55
2019-04-03T03:50:07.827Z,8.27
2019-04-03T03:55:24.225Z,7.83
2019-04-03T04:00:34.296Z,7.87
2019-04-03T04:05:49.000Z,7.87
2019-04-03T04:11:06.152Z,7.57
2019-04-03T04:16:23.537Z,7.33
2019-04-03T04:21:33.689Z,7.43
2019-04-03T04:27:04.680Z,7.20
2019-04-03T04:32:17.623Z,7.23
2019-04-03T04:37:30.730Z,6.83
2019-04-03T04:42:43.597Z,7.53
2019-04-03T04:47:52.984Z,7.53
2019-04-03T04:53:06.382Z,7.33
2019-04-03T04:58:36.261Z,7.80
2019-04-03T05:03:45.225Z,8.53
2019-04-03T05:09:15.784Z,7.77
2019-04-03T05:15:04.495Z,8.77
2019-04-03T05:20:30.751Z,7.67
2019-04-03T05:25:41.060Z,8.10
2019-04-03T05:30:56.584Z,7.90
2019-04-03T05:36:10.631Z,8.00
2019-04-03T05:41:27.695Z,8.37
2019-04-03T05:46:36.738Z,8.40
2019-04-03T05:51:48.524Z,7.70
2019-04-03T05:57:19.810Z,7.87
2019-04-03T06:02:28.876Z,8.47
2019-04-03T06:07:44.926Z,8.97
2019-04-03T06:12:57.499Z,9.17
2019-04-03T06:18:13.665Z,8.83
2019-04-03T06:23:28.621Z,9.30
2019-04-03T06:28:42.543Z,9.73
2019-04-03T06:33:57.657Z,10.03
2019-04-03T06:39:14.435Z,9.53
2019-04-03T06:44:31.732Z,9.17
2019-04-03T06:49:40.997Z,9.93
2019-04-03T06:54:52.914Z,9.53
2019-04-03T07:00:03.977Z,9.53
2019-04-03T07:05:12.340Z,8.80
2019-04-03T07:10:25.734Z,9.07
2019-04-03T07:15:34.709Z,9.43
2019-04-03T07:20:45.176Z,8.80
2019-04-03T07:25:56.033Z,8.73
2019-04-03T07:31:09.928Z,9.00
2019-04-03T07:36:27.902Z,8.40
2019-04-03T07:41:40.870Z,8.10
2019-04-03T07:46:50.519Z,8.83
2019-04-03T07:52:03.337Z,8.63
2019-04-03T07:57:16.677Z,9.20
2019-04-03T08:02:27.407Z,8.48
2019-04-03T08:07:40.980Z,9.30
2019-04-03T08:13:12.566Z,8.00
2019-04-03T08:18:26.401Z,8.55
2019-04-03T08:23:36.743Z,8.43
2019-04-03T08:28:46.887Z,7.97
2019-04-03T08:33:59.972Z,7.60
2019-04-03T08:39:16.074Z,6.97
2019-04-03T08:44:23.559Z,6.40
2019-04-03T08:49:37.504Z,5.37
2019-04-03T08:54:49.342Z,5.00
2019-04-03T09:00:02.092Z,4.77
2019-04-03T09:05:15.096Z,3.07
2019-04-03T09:10:27.483Z,3.33
2019-04-03T09:15:36.213Z,2.80
2019-04-03T09:20:45.889Z,3.00
2019-04-03T09:26:02.619Z,2.83
2019-04-03T09:31:17.131Z,1.67
2019-04-03T09:36:30.147Z,2.13
2019-04-03T09:41:47.235Z,1.80
2019-04-03T09:46:58.441Z,1.80
2019-04-03T09:52:13.050Z,1.93
2019-04-03T09:57:26.810Z,1.57
2019-04-03T10:02:37.951Z,2.50
2019-04-03T10:07:47.290Z,1.90
2019-04-03T10:13:00.446Z,2.27
2019-04-03T10:18:10.076Z,2.50
2019-04-03T10:23:21.693Z,2.22
2019-04-03T10:28:32.950Z,2.13
2019-04-03T10:33:47.243Z,2.00
2019-04-03T10:38:58.353Z,2.13
2019-04-03T10:44:06.730Z,1.80
2019-04-03T10:49:18.911Z,2.57
2019-04-03T10:54:28.705Z,2.33
2019-04-03T10:59:37.061Z,2.43
2019-04-03T11:04:50.400Z,2.60
2019-04-03T11:10:40.454Z,2.43
2019-04-03T11:16:15.785Z,1.93
2019-04-03T11:21:29.096Z,2.60
2019-04-03T11:26:45.306Z,2.73
2019-04-03T11:32:00.578Z,2.40
2019-04-03T11:37:09.546Z,3.03
2019-04-03T11:42:24.334Z,3.67
2019-04-03T11:47:27.884Z,3.63
2019-04-03T11:52:42.271Z,3.13
2019-04-03T11:57:52.782Z,2.93
2019-04-03T12:03:03.940Z,3.00
2019-04-03T12:08:13.059Z,3.57
2019-04-03T12:13:27.958Z,3.00
2019-04-03T12:18:38.960Z,3.30
2019-04-03T12:23:46.625Z,3.03
2019-04-03T12:28:55.973Z,2.90
2019-04-03T12:34:11.804Z,4.03
2019-04-03T12:39:34.738Z,3.90
2019-04-03T12:44:54.036Z,3.90
2019-04-03T12:50:03.087Z,4.30
2019-04-03T12:55:13.332Z,4.03
2019-04-03T13:00:25.194Z,3.80
2019-04-03T13:05:39.578Z,5.27
2019-04-03T13:10:53.795Z,4.70
2019-04-03T13:16:12.554Z,4.80
2019-04-03T13:21:47.033Z,5.10
2019-04-03T13:27:01.214Z,5.07
2019-04-03T13:32:38.320Z,5.37
2019-04-03T13:37:46.398Z,5.33
2019-04-03T13:43:00.746Z,4.13
2019-04-03T13:48:15.472Z,5.30
2019-04-03T13:53:46.344Z,6.10
2019-04-03T13:59:03.777Z,6.97
2019-04-03T14:04:15.275Z,6.27
2019-04-03T14:09:30.054Z,5.58
2019-04-03T14:14:39.135Z,5.70
2019-04-03T14:19:54.060Z,4.90
2019-04-03T14:25:18.477Z,4.93
2019-04-03T14:30:21.566Z,4.90
2019-04-03T14:35:48.777Z,5.27
2019-04-03T14:40:48.478Z,5.10
2019-04-03T14:45:56.854Z,5.93
2019-04-03T14:51:12.174Z,4.80
2019-04-03T14:56:27.132Z,4.03
2019-04-03T15:01:57.007Z,4.80
2019-04-03T15:07:09.435Z,4.43
2019-04-03T15:12:18.472Z,4.58
2019-04-03T15:17:34.116Z,4.30
2019-04-03T15:22:45.081Z,4.70
2019-04-03T15:28:00.459Z,4.07
2019-04-03T15:33:18.759Z,4.40
2019-04-03T15:38:29.404Z,4.60
2019-04-03T15:44:00.595Z,4.70
2019-04-03T15:49:15.332Z,4.57
2019-04-03T15:54:32.917Z,4.50
2019-04-03T15:59:39.919Z,4.77
2019-04-03T16:04:58.462Z,5.20
2019-04-03T16:10:11.847Z,4.90
2019-04-03T16:15:24.667Z,5.47
2019-04-03T16:20:40.629Z,5.10
2019-04-03T16:25:52.400Z,5.33
2019-04-03T16:31:06.792Z,4.70
2019-04-03T16:36:18.606Z,4.85
2019-04-03T16:41:32.496Z,6.03
2019-04-03T16:46:42.611Z,5.73
2019-04-03T16:51:57.346Z,5.43
2019-04-03T16:57:14.034Z,5.83
2019-04-03T17:02:25.417Z,6.33
2019-04-03T17:07:37.696Z,5.87
2019-04-03T17:12:50.055Z,6.43
2019-04-03T17:18:02.597Z,7.20
2019-04-03T17:23:14.148Z,7.33
2019-04-03T17:29:05.414Z,7.10
2019-04-03T17:34:12.642Z,6.80
2019-04-03T17:39:21.877Z,6.00
2019-04-03T17:44:34.449Z,5.75
2019-04-03T17:49:47.103Z,5.63
2019-04-03T17:54:58.008Z,6.43
2019-04-03T18:00:05.889Z,6.37
2019-04-03T18:05:18.434Z,6.93
2019-04-03T18:10:27.224Z,7.08
2019-04-03T18:15:36.445Z,7.47
2019-04-03T18:20:46.181Z,7.83
2019-04-03T18:26:00.746Z,7.83
2019-04-03T18:31:15.752Z,8.07
2019-04-03T18:36:31.228Z,8.55
2019-04-03T18:41:45.877Z,7.60
2019-04-03T18:46:55.883Z,8.03
2019-04-03T18:52:07.777Z,8.83
2019-04-03T18:57:20.524Z,8.50
2019-04-03T19:02:34.315Z,9.13
2019-04-03T19:07:48.902Z,8.77
2019-04-03T19:13:02.223Z,8.50
2019-04-03T19:18:19.360Z,9.10
2019-04-03T19:24:00.876Z,9.13
2019-04-03T19:29:11.047Z,8.70
2019-04-03T19:34:21.620Z,8.78
2019-04-03T19:39:32.944Z,10.10
2019-04-03T19:44:41.813Z,9.50
2019-04-03T19:49:54.727Z,9.03
2019-04-03T19:55:09.824Z,8.60
2019-04-03T20:00:19.306Z,9.37
2019-04-03T20:05:31.941Z,8.90
2019-04-03T20:10:49.212Z,8.97
2019-04-03T20:16:03.284Z,9.20
2019-04-03T20:21:10.064Z,9.33
2019-04-03T20:26:22.202Z,9.17
2019-04-03T20:31:40.862Z,8.13
2019-04-03T20:36:54.719Z,7.00
2019-04-03T20:42:08.140Z,7.50
2019-04-03T20:47:22.146Z,7.37
2019-04-03T20:52:31.299Z,6.60
2019-04-03T20:58:05.858Z,7.30
2019-04-03T21:03:14.369Z,7.40
2019-04-03T21:08:27.224Z,7.20
2019-04-03T21:13:36.191Z,7.90
2019-04-03T21:19:06.412Z,6.97
2019-04-03T21:24:19.241Z,8.00
2019-04-03T21:29:30.429Z,7.17
2019-04-03T21:34:43.025Z,6.77
2019-04-03T21:40:04.492Z,6.63
2019-04-03T21:45:22.130Z,5.20
2019-04-03T21:50:35.223Z,4.57
2019-04-03T21:55:51.131Z,3.83
2019-04-03T22:01:27.041Z,4.00
2019-04-03T22:06:37.231Z,4.20
2019-04-03T22:11:45.560Z,3.77
2019-04-03T22:16:56.256Z,4.37
2019-04-03T22:22:10.925Z,4.43
2019-04-03T22:27:25.207Z,4.37
2019-04-03T22:32:36.774Z,4.20
2019-04-03T22:37:49.503Z,4.20
2019-04-03T22:43:00.196Z,4.20
2019-04-03T22:48:11.295Z,4.97
2019-04-03T22:53:24.225Z,4.77
2019-04-03T22:58:36.422Z,4.67
2019-04-03T23:03:49.413Z,5.00
2019-04-03T23:08:56.644Z,4.93
2019-04-03T23:14:15.714Z,4.20
2019-04-03T23:19:32.466Z,5.03
2019-04-03T23:24:45.541Z,4.93
2019-04-03T23:30:00.361Z,4.93
2019-04-03T23:35:15.074Z,4.70
2019-04-03T23:40:27.704Z,4.70
2019-04-03T23:45:43.574Z,4.50
2019-04-03T23:50:57.499Z,4.60
2019-04-03T23:56:09.169Z,4.07
